createdAt,value
2023-05-04T00:00:19.109Z,9.10
2023-05-04T00:02:52.130Z,9.67
2023-05-04T00:05:26.738Z,9.43
2023-05-04T00:07:59.773Z,9.40
2023-05-04T00:10:32.793Z,10.67
2023-05-04T00:13:05.748Z,10.23
2023-05-04T00:15:38.809Z,9.67
2023-05-04T00:18:11.713Z,8.30
2023-05-04T00:20:46.144Z,8.83
2023-05-04T00:23:19.177Z,8.37
2023-05-04T00:25:52.157Z,8.73
2023-05-04T00:28:25.860Z,8.63
2023-05-04T00:30:58.773Z,8.70
2023-05-04T00:33:31.740Z,8.67
2023-05-04T00:36:07.261Z,7.50
2023-05-04T00:38:49.365Z,9.00
2023-05-04T00:41:23.083Z,7.87
2023-05-04T00:43:56.003Z,8.03
2023-05-04T00:46:29.020Z,8.07
2023-05-04T00:49:02.398Z,8.53
2023-05-04T00:51:37.902Z,9.20
2023-05-04T00:54:10.874Z,8.77
2023-05-04T00:56:43.815Z,8.33
2023-05-04T00:59:16.860Z,8.73
2023-05-04T01:01:49.798Z,8.77
2023-05-04T01:04:22.808Z,7.60
2023-05-04T01:07:10.229Z,8.17
2023-05-04T01:09:48.345Z,7.57
2023-05-04T01:12:31.490Z,8.33
2023-05-04T01:15:05.188Z,8.23
2023-05-04T01:17:38.287Z,8.43
2023-05-04T01:20:12.532Z,8.67
2023-05-04T01:22:46.895Z,9.57
2023-05-04T01:25:20.137Z,9.77
2023-05-04T01:28:00.964Z,8.27
2023-05-04T01:30:40.779Z,8.17
2023-05-04T01:33:14.012Z,7.87
2023-05-04T01:35:47.391Z,8.03
2023-05-04T01:38:21.986Z,6.70
2023-05-04T01:40:54.908Z,7.43
2023-05-04T01:43:27.897Z,8.03
2023-05-04T01:46:00.926Z,8.00
2023-05-04T01:48:34.125Z,7.40
2023-05-04T01:51:07.248Z,7.13
2023-05-04T01:53:41.791Z,8.07
2023-05-04T01:56:14.742Z,7.70
2023-05-04T01:58:47.687Z,7.67
2023-05-04T02:01:21.054Z,8.13
2023-05-04T02:03:54.137Z,8.80
2023-05-04T02:06:27.171Z,8.43
2023-05-04T02:09:01.775Z,8.03
2023-05-04T02:11:34.780Z,8.30
2023-05-04T02:14:07.767Z,8.53
2023-05-04T02:16:40.766Z,8.40
2023-05-04T02:19:13.740Z,8.27
2023-05-04T02:21:47.296Z,8.77
2023-05-04T02:24:21.615Z,8.90
2023-05-04T02:26:54.601Z,8.87
2023-05-04T02:29:27.538Z,10.33
2023-05-04T02:32:00.651Z,11.10
2023-05-04T02:34:35.256Z,11.50
2023-05-04T02:37:08.238Z,10.57
2023-05-04T02:39:42.512Z,10.93
2023-05-04T02:42:15.474Z,11.43
2023-05-04T02:44:48.403Z,12.10
2023-05-04T02:47:21.399Z,11.47
2023-05-04T02:49:54.379Z,12.30
2023-05-04T02:52:27.285Z,11.87
2023-05-04T02:55:03.038Z,10.73
2023-05-04T02:57:36.043Z,9.93
2023-05-04T03:00:10.620Z,9.97
2023-05-04T03:02:43.581Z,9.80
2023-05-04T03:05:16.611Z,10.17
2023-05-04T03:07:49.542Z,10.27
2023-05-04T03:10:23.835Z,9.50
2023-05-04T03:12:56.860Z,10.13
2023-05-04T03:15:29.827Z,9.60
2023-05-04T03:18:03.082Z,9.30
2023-05-04T03:20:36.053Z,9.97
2023-05-04T03:23:09.000Z,9.53
2023-05-04T03:25:43.278Z,10.33
2023-05-04T03:28:16.416Z,10.10
2023-05-04T03:30:49.369Z,10.00
2023-05-04T03:33:22.373Z,10.20
2023-05-04T03:35:55.372Z,9.67
2023-05-04T03:38:28.387Z,9.30
2023-05-04T03:41:02.736Z,9.10
2023-05-04T03:43:35.696Z,10.47
2023-05-04T03:46:08.760Z,10.97
2023-05-04T03:48:42.084Z,10.67
2023-05-04T03:51:15.267Z,9.67
2023-05-04T03:53:48.421Z,10.97
2023-05-04T03:56:22.904Z,10.37
2023-05-04T03:58:55.883Z,10.57
2023-05-04T04:01:28.829Z,10.80
2023-05-04T04:04:01.875Z,11.03
2023-05-04T04:06:34.915Z,10.50
2023-05-04T04:09:07.919Z,10.57
2023-05-04T04:11:42.237Z,10.60
2023-05-04T04:14:15.193Z,11.07
2023-05-04T04:16:49.194Z,10.30
2023-05-04T04:19:22.174Z,11.07
2023-05-04T04:21:55.167Z,11.77
2023-05-04T04:24:28.164Z,11.00
2023-05-04T04:27:02.481Z,11.63
2023-05-04T04:29:35.622Z,10.90
2023-05-04T04:32:08.776Z,11.17
2023-05-04T04:34:41.824Z,11.43
2023-05-04T04:37:14.806Z,11.00
2023-05-04T04:39:47.754Z,10.80
2023-05-04T04:42:22.210Z,11.40
2023-05-04T04:44:55.162Z,11.57
2023-05-04T04:47:28.188Z,10.43
2023-05-04T04:50:01.548Z,11.77
2023-05-04T04:52:34.791Z,11.70
2023-05-04T04:55:09.008Z,11.47
2023-05-04T04:57:43.330Z,12.20
2023-05-04T05:00:17.757Z,11.10
2023-05-04T05:02:50.716Z,11.37
2023-05-04T05:05:23.828Z,11.53
2023-05-04T05:07:56.834Z,12.27
2023-05-04T05:10:29.876Z,12.20
2023-05-04T05:13:04.333Z,12.27
2023-05-04T05:15:37.403Z,10.93
2023-05-04T05:18:10.377Z,11.53
2023-05-04T05:20:43.453Z,12.30
2023-05-04T05:23:16.572Z,11.07
2023-05-04T05:25:49.499Z,10.83
2023-05-04T05:28:23.966Z,12.37
2023-05-04T05:30:56.981Z,11.33
2023-05-04T05:33:29.993Z,11.60
2023-05-04T05:36:03.389Z,11.27
2023-05-04T05:38:36.370Z,10.75
2023-05-04T05:41:10.089Z,11.18
2023-05-04T05:43:44.368Z,10.48
2023-05-04T05:46:18.327Z,9.98
2023-05-04T05:48:51.300Z,10.25
2023-05-04T05:51:24.402Z,10.13
2023-05-04T05:53:57.371Z,10.45
2023-05-04T05:56:30.336Z,9.55
2023-05-04T05:59:04.705Z,11.05
2023-05-04T06:01:37.657Z,11.43
2023-05-04T06:04:10.886Z,10.80
2023-05-04T06:06:45.796Z,11.20
2023-05-04T06:09:19.152Z,11.60
2023-05-04T06:11:54.044Z,12.55
2023-05-04T06:14:29.791Z,13.73
2023-05-04T06:17:02.775Z,12.73
2023-05-04T06:19:36.452Z,12.63
2023-05-04T06:22:09.404Z,13.20
2023-05-04T06:24:42.365Z,13.13
2023-05-04T06:27:15.317Z,12.82
2023-05-04T06:29:49.735Z,13.10
2023-05-04T06:32:22.805Z,12.70
2023-05-04T06:34:56.332Z,13.00
2023-05-04T06:37:29.335Z,13.38
2023-05-04T06:40:03.995Z,13.07
2023-05-04T06:42:37.029Z,13.13
2023-05-04T06:45:12.333Z,12.02
2023-05-04T06:47:45.737Z,11.52
2023-05-04T06:50:18.773Z,12.50
2023-05-04T06:52:51.999Z,11.15
2023-05-04T06:55:24.921Z,11.10
2023-05-04T06:57:57.881Z,10.80
2023-05-04T07:00:32.555Z,10.35
2023-05-04T07:03:05.803Z,10.57
2023-05-04T07:05:38.754Z,10.05
2023-05-04T07:08:11.783Z,9.88
2023-05-04T07:10:44.813Z,8.32
2023-05-04T07:13:18.056Z,9.68
2023-05-04T07:15:52.358Z,9.45
2023-05-04T07:18:25.334Z,9.52
2023-05-04T07:21:10.750Z,9.27
2023-05-04T07:23:52.758Z,8.95
2023-05-04T07:26:25.902Z,8.07
2023-05-04T07:28:58.820Z,9.13
2023-05-04T07:31:33.635Z,8.45
2023-05-04T07:34:07.278Z,8.45
2023-05-04T07:36:42.047Z,8.13
2023-05-04T07:39:17.120Z,7.32
2023-05-04T07:41:51.601Z,7.43
2023-05-04T07:44:24.591Z,7.60
2023-05-04T07:46:59.415Z,7.07
2023-05-04T07:49:32.467Z,7.60
2023-05-04T07:52:06.162Z,6.95
2023-05-04T07:54:39.298Z,7.10
2023-05-04T07:57:12.296Z,6.88
2023-05-04T07:59:45.250Z,6.93
2023-05-04T08:02:19.704Z,7.38
2023-05-04T08:04:52.815Z,6.30
2023-05-04T08:07:25.843Z,7.03
2023-05-04T08:09:59.065Z,6.70
2023-05-04T08:12:32.108Z,6.32
2023-05-04T08:15:06.451Z,6.15
2023-05-04T08:17:40.951Z,6.07
2023-05-04T08:20:14.512Z,6.47
2023-05-04T08:22:47.508Z,6.22
2023-05-04T08:25:22.188Z,6.03
2023-05-04T08:27:55.154Z,5.88
2023-05-04T08:30:28.369Z,6.95
2023-05-04T08:33:02.716Z,5.95
2023-05-04T08:35:36.064Z,6.65
2023-05-04T08:38:09.113Z,6.07
2023-05-04T08:40:43.461Z,6.10
2023-05-04T08:43:17.015Z,6.00
2023-05-04T08:45:50.976Z,6.18
2023-05-04T08:48:25.347Z,5.47
2023-05-04T08:50:59.644Z,6.78
2023-05-04T08:53:34.094Z,5.60
2023-05-04T08:56:10.609Z,5.85
2023-05-04T08:58:50.909Z,5.70
2023-05-04T09:01:24.200Z,5.93
2023-05-04T09:04:02.464Z,5.57
2023-05-04T09:06:35.613Z,5.30
2023-05-04T09:09:10.012Z,5.78
2023-05-04T09:11:43.158Z,4.50
2023-05-04T09:14:16.165Z,4.47
2023-05-04T09:16:49.196Z,5.15
2023-05-04T09:19:23.567Z,5.07
2023-05-04T09:21:56.526Z,4.82
2023-05-04T09:24:30.238Z,4.78
2023-05-04T09:27:11.399Z,5.13
2023-05-04T09:29:44.489Z,5.10
2023-05-04T09:32:17.466Z,5.07
2023-05-04T09:34:53.890Z,5.10
2023-05-04T09:37:26.943Z,4.90
2023-05-04T09:40:00.434Z,5.00
2023-05-04T09:42:33.963Z,4.70
2023-05-04T09:45:10.041Z,5.20
2023-05-04T09:47:44.158Z,4.55
2023-05-04T09:50:22.156Z,4.85
2023-05-04T09:52:57.371Z,5.15
2023-05-04T09:55:30.716Z,5.55
2023-05-04T09:58:04.018Z,6.07
2023-05-04T10:00:38.664Z,5.70
2023-05-04T10:03:12.034Z,5.05
2023-05-04T10:05:46.915Z,4.50
2023-05-04T10:08:20.721Z,6.80
2023-05-04T10:10:54.084Z,6.25
2023-05-04T10:13:28.012Z,4.82
2023-05-04T10:16:24.193Z,5.28
2023-05-04T10:19:22.983Z,5.28
2023-05-04T10:22:13.410Z,6.50
2023-05-04T10:25:09.310Z,5.10
2023-05-04T10:27:57.253Z,5.70
2023-05-04T10:30:30.502Z,6.50
2023-05-04T10:33:03.647Z,6.78
2023-05-04T10:35:37.838Z,6.45
2023-05-04T10:38:13.123Z,5.45
2023-05-04T10:40:48.954Z,5.43
2023-05-04T10:43:25.431Z,5.05
2023-05-04T10:45:58.623Z,5.65
2023-05-04T10:48:35.970Z,6.32
2023-05-04T10:51:19.322Z,6.47
2023-05-04T10:53:54.298Z,6.55
2023-05-04T10:56:28.853Z,6.43
2023-05-04T10:59:10.300Z,6.15
2023-05-04T11:01:45.243Z,6.30
2023-05-04T11:04:22.324Z,6.55
2023-05-04T11:07:00.241Z,5.85
2023-05-04T11:09:39.163Z,5.90
2023-05-04T11:12:16.452Z,6.95
2023-05-04T11:14:49.388Z,6.10
2023-05-04T11:17:28.035Z,6.05
2023-05-04T11:20:01.878Z,5.05
2023-05-04T11:22:34.935Z,5.30
2023-05-04T11:25:10.264Z,6.00
2023-05-04T11:27:43.719Z,5.20
2023-05-04T11:30:17.234Z,7.07
2023-05-04T11:32:50.535Z,6.57
2023-05-04T11:35:23.718Z,6.10
2023-05-04T11:37:57.350Z,6.63
2023-05-04T11:40:31.865Z,7.35
2023-05-04T11:43:05.337Z,6.70
2023-05-04T11:45:41.372Z,5.70
2023-05-04T11:48:16.534Z,6.55
2023-05-04T11:50:51.207Z,7.90
2023-05-04T11:53:24.198Z,7.43
2023-05-04T11:56:04.610Z,7.28
2023-05-04T11:58:37.955Z,7.93
2023-05-04T12:01:11.017Z,8.23
2023-05-04T12:03:53.389Z,6.93
2023-05-04T12:06:34.167Z,6.57
2023-05-04T12:09:07.650Z,6.90
2023-05-04T12:11:42.063Z,8.55
2023-05-04T12:14:15.404Z,9.52
2023-05-04T12:16:57.481Z,7.82
2023-05-04T12:19:31.331Z,8.73
2023-05-04T12:22:06.019Z,10.13
2023-05-04T12:24:39.741Z,7.90
2023-05-04T12:27:17.198Z,9.40
2023-05-04T12:29:50.240Z,8.25
2023-05-04T12:32:23.297Z,9.48
2023-05-04T12:34:56.282Z,8.65
2023-05-04T12:37:29.217Z,8.02
2023-05-04T12:40:02.295Z,8.93
2023-05-04T12:42:36.713Z,8.60
2023-05-04T12:45:11.363Z,8.18
2023-05-04T12:47:44.314Z,8.68
2023-05-04T12:50:17.461Z,8.40
2023-05-04T12:52:50.457Z,7.55
2023-05-04T12:55:25.434Z,6.82
2023-05-04T12:58:00.048Z,8.27
2023-05-04T13:00:36.261Z,7.20
2023-05-04T13:03:09.551Z,6.20
2023-05-04T13:05:43.096Z,7.18
2023-05-04T13:08:16.674Z,6.80
2023-05-04T13:10:49.601Z,7.68
2023-05-04T13:13:28.366Z,6.97
2023-05-04T13:16:01.863Z,9.73
2023-05-04T13:18:34.848Z,8.57
2023-05-04T13:21:07.886Z,8.75
2023-05-04T13:23:40.919Z,7.85
2023-05-04T13:26:14.050Z,8.30
2023-05-04T13:28:48.664Z,8.05
2023-05-04T13:31:21.741Z,8.02
2023-05-04T13:33:54.743Z,7.88
2023-05-04T13:36:28.138Z,6.50
2023-05-04T13:39:01.189Z,7.70
2023-05-04T13:41:34.472Z,6.47
2023-05-04T13:44:08.884Z,7.07
2023-05-04T13:46:42.288Z,7.15
2023-05-04T13:49:15.338Z,7.25
2023-05-04T13:51:48.410Z,8.00
2023-05-04T13:54:21.423Z,7.85
2023-05-04T13:56:54.395Z,7.68
2023-05-04T13:59:29.334Z,6.40
2023-05-04T14:02:02.468Z,6.75
2023-05-04T14:04:37.506Z,7.18
2023-05-04T14:07:12.390Z,5.15
2023-05-04T14:09:46.005Z,5.95
2023-05-04T14:12:20.073Z,5.63
2023-05-04T14:14:54.524Z,7.05
2023-05-04T14:17:27.572Z,5.25
2023-05-04T14:20:00.817Z,6.50
2023-05-04T14:22:35.088Z,7.00
2023-05-04T14:25:10.906Z,7.00
2023-05-04T14:27:44.677Z,7.25
2023-05-04T14:30:19.451Z,6.00
2023-05-04T14:32:55.170Z,6.43
2023-05-04T14:35:28.300Z,6.03
2023-05-04T14:38:01.332Z,6.00
2023-05-04T14:40:34.331Z,5.68
2023-05-04T14:43:07.425Z,5.20
2023-05-04T14:45:41.813Z,6.43
2023-05-04T14:48:15.133Z,6.05
2023-05-04T14:50:48.258Z,4.18
2023-05-04T14:53:21.686Z,6.07
2023-05-04T14:55:54.666Z,5.82
2023-05-04T14:58:28.672Z,5.70
2023-05-04T15:01:03.083Z,6.13
2023-05-04T15:03:36.142Z,5.30
2023-05-04T15:06:10.154Z,5.30
2023-05-04T15:08:43.294Z,5.70
2023-05-04T15:11:17.536Z,5.38
2023-05-04T15:13:51.861Z,6.60
2023-05-04T15:16:29.811Z,5.85
2023-05-04T15:19:03.151Z,5.38
2023-05-04T15:21:37.220Z,4.57
2023-05-04T15:24:10.310Z,5.05
2023-05-04T15:26:43.360Z,5.13
2023-05-04T15:29:16.461Z,4.70
2023-05-04T15:31:51.133Z,6.55
2023-05-04T15:34:24.145Z,5.72
2023-05-04T15:36:57.224Z,6.10
2023-05-04T15:39:30.821Z,5.90
2023-05-04T15:42:04.516Z,6.20
2023-05-04T15:44:37.531Z,5.30
2023-05-04T15:47:12.593Z,4.50
2023-05-04T15:49:45.914Z,4.88
2023-05-04T15:52:18.885Z,6.00
2023-05-04T15:54:51.900Z,5.72
2023-05-04T15:57:24.990Z,5.88
2023-05-04T15:59:59.284Z,5.10
2023-05-04T16:02:34.752Z,5.13
2023-05-04T16:05:08.891Z,5.53
2023-05-04T16:07:41.909Z,4.65
2023-05-04T16:10:14.932Z,5.75
2023-05-04T16:12:48.015Z,4.80
2023-05-04T16:15:21.433Z,6.85
2023-05-04T16:17:55.918Z,5.28
2023-05-04T16:20:29.969Z,5.85
2023-05-04T16:23:02.953Z,4.82
2023-05-04T16:25:36.032Z,5.10
2023-05-04T16:28:09.557Z,5.57
2023-05-04T16:30:42.958Z,5.00
2023-05-04T16:33:17.432Z,5.20
2023-05-04T16:35:50.488Z,5.25
2023-05-04T16:38:23.487Z,4.93
2023-05-04T16:40:56.444Z,5.30
2023-05-04T16:43:29.669Z,5.53
2023-05-04T16:46:02.721Z,4.97
2023-05-04T16:48:37.971Z,4.38
2023-05-04T16:51:11.025Z,4.80
2023-05-04T16:53:44.053Z,4.80
2023-05-04T16:56:20.620Z,4.93
2023-05-04T16:58:53.581Z,5.75
2023-05-04T17:01:26.825Z,5.32
2023-05-04T17:04:02.012Z,5.38
2023-05-04T17:06:35.270Z,5.75
2023-05-04T17:09:08.282Z,5.18
2023-05-04T17:11:41.302Z,5.18
2023-05-04T17:14:14.319Z,5.63
2023-05-04T17:16:47.542Z,4.90
2023-05-04T17:19:21.869Z,4.80
2023-05-04T17:21:54.883Z,11.63
2023-05-04T17:24:28.003Z,6.00
2023-05-04T17:27:01.415Z,5.30
2023-05-04T17:29:34.407Z,5.03
2023-05-04T17:32:08.028Z,5.40
2023-05-04T17:34:42.419Z,4.70
2023-05-04T17:37:15.528Z,5.32
2023-05-04T17:39:48.558Z,5.40
2023-05-04T17:42:21.548Z,4.75
2023-05-04T17:44:54.527Z,5.03
2023-05-04T17:47:27.576Z,5.13
2023-05-04T17:50:01.932Z,4.30
2023-05-04T17:52:35.228Z,4.40
2023-05-04T17:55:09.082Z,4.15
2023-05-04T17:57:42.051Z,4.35
2023-05-04T18:00:16.260Z,4.13
2023-05-04T18:02:49.340Z,4.68
2023-05-04T18:05:25.080Z,3.80
2023-05-04T18:07:58.015Z,4.07
2023-05-04T18:10:31.040Z,4.18
2023-05-04T18:13:04.047Z,4.60
2023-05-04T18:15:37.048Z,4.20
2023-05-04T18:18:11.063Z,4.60
2023-05-04T18:20:45.436Z,5.28
2023-05-04T18:23:18.401Z,4.45
2023-05-04T18:25:51.347Z,4.70
2023-05-04T18:28:24.410Z,4.65
2023-05-04T18:30:57.449Z,3.80
2023-05-04T18:33:31.384Z,4.93
2023-05-04T18:36:06.368Z,4.80
2023-05-04T18:38:39.367Z,4.80
2023-05-04T18:41:12.600Z,4.50
2023-05-04T18:43:46.331Z,4.93
2023-05-04T18:46:19.508Z,5.13
2023-05-04T18:48:52.585Z,4.40
2023-05-04T18:51:27.809Z,4.72
2023-05-04T18:54:01.149Z,4.40
2023-05-04T18:56:34.207Z,4.90
2023-05-04T18:59:07.812Z,4.82
2023-05-04T19:01:40.867Z,5.22
2023-05-04T19:04:13.852Z,6.90
2023-05-04T19:06:51.598Z,5.50
2023-05-04T19:09:24.690Z,4.60
2023-05-04T19:11:57.726Z,5.03
2023-05-04T19:14:32.348Z,4.60
2023-05-04T19:17:05.814Z,5.18
2023-05-04T19:19:38.958Z,5.03
2023-05-04T19:22:15.545Z,5.60
2023-05-04T19:24:51.724Z,4.88
2023-05-04T19:27:25.719Z,5.20
2023-05-04T19:29:58.678Z,4.90
2023-05-04T19:32:32.764Z,4.57
2023-05-04T19:35:06.996Z,5.38
2023-05-04T19:37:42.099Z,5.00
2023-05-04T19:40:15.144Z,5.10
2023-05-04T19:42:48.227Z,6.18
2023-05-04T19:45:21.352Z,5.15
2023-05-04T19:47:54.379Z,5.82
2023-05-04T19:50:27.536Z,5.32
2023-05-04T19:53:01.885Z,5.50
2023-05-04T19:55:36.109Z,5.25
2023-05-04T19:58:10.625Z,5.75
2023-05-04T20:00:43.686Z,5.43
2023-05-04T20:03:17.869Z,5.78
2023-05-04T20:05:51.934Z,5.65
2023-05-04T20:08:26.864Z,5.53
2023-05-04T20:10:59.918Z,5.85
2023-05-04T20:13:32.891Z,5.90
2023-05-04T20:16:06.578Z,5.97
2023-05-04T20:18:39.675Z,6.20
2023-05-04T20:21:12.637Z,6.60
2023-05-04T20:23:46.988Z,5.28
2023-05-04T20:26:19.989Z,6.10
2023-05-04T20:28:52.957Z,5.35
2023-05-04T20:31:26.721Z,5.90
2023-05-04T20:33:59.820Z,5.50
2023-05-04T20:36:33.244Z,6.03
2023-05-04T20:39:07.653Z,5.65
2023-05-04T20:41:41.017Z,5.65
2023-05-04T20:44:14.011Z,5.82
2023-05-04T20:46:47.072Z,5.35
2023-05-04T20:49:20.085Z,5.43
2023-05-04T20:51:53.027Z,5.80
2023-05-04T20:54:27.529Z,5.97
2023-05-04T20:57:01.336Z,5.85
2023-05-04T20:59:34.376Z,6.05
2023-05-04T21:02:07.881Z,6.18
2023-05-04T21:04:41.793Z,5.50
2023-05-04T21:07:14.740Z,5.18
2023-05-04T21:09:49.071Z,6.38
2023-05-04T21:12:22.107Z,5.97
2023-05-04T21:14:55.710Z,5.55
2023-05-04T21:17:28.687Z,5.53
2023-05-04T21:20:01.828Z,6.05
2023-05-04T21:22:35.087Z,6.20
2023-05-04T21:25:10.126Z,6.53
2023-05-04T21:27:44.394Z,6.30
2023-05-04T21:30:17.786Z,5.85
2023-05-04T21:32:51.093Z,6.13
2023-05-04T21:35:24.596Z,6.45
2023-05-04T21:37:57.967Z,5.88
2023-05-04T21:40:32.250Z,5.57
2023-05-04T21:43:05.266Z,6.10
2023-05-04T21:45:38.212Z,5.75
2023-05-04T21:48:11.329Z,6.20
2023-05-04T21:50:44.367Z,6.45
2023-05-04T21:53:17.416Z,6.63
2023-05-04T21:55:51.732Z,6.57
2023-05-04T21:58:24.918Z,6.75
2023-05-04T22:00:57.915Z,5.70
2023-05-04T22:03:30.959Z,6.18
2023-05-04T22:06:04.128Z,5.88
2023-05-04T22:08:37.234Z,7.20
2023-05-04T22:11:11.894Z,6.80
2023-05-04T22:13:44.870Z,5.80
2023-05-04T22:16:18.808Z,6.00
2023-05-04T22:18:51.803Z,6.30
2023-05-04T22:21:24.906Z,7.25
2023-05-04T22:23:57.869Z,6.70
2023-05-04T22:26:32.165Z,6.32
2023-05-04T22:29:05.230Z,7.30
2023-05-04T22:31:38.204Z,6.43
2023-05-04T22:34:11.179Z,7.28
2023-05-04T22:36:44.129Z,6.95
2023-05-04T22:39:17.129Z,6.45
2023-05-04T22:41:51.427Z,6.43
2023-05-04T22:44:24.403Z,6.30
2023-05-04T22:46:57.442Z,6.53
2023-05-04T22:49:30.366Z,6.43
2023-05-04T22:52:03.307Z,6.40
2023-05-04T22:54:36.303Z,6.60
2023-05-04T22:57:10.608Z,7.00
2023-05-04T22:59:43.524Z,7.30
2023-05-04T23:02:16.600Z,7.45
2023-05-04T23:04:50.797Z,7.30
2023-05-04T23:07:23.965Z,7.07
2023-05-04T23:09:57.170Z,7.35
2023-05-04T23:12:31.555Z,8.40
2023-05-04T23:15:06.467Z,7.10
2023-05-04T23:17:39.825Z,7.07
2023-05-04T23:20:13.629Z,7.38
2023-05-04T23:22:46.646Z,7.68
2023-05-04T23:25:19.804Z,7.65
2023-05-04T23:27:54.072Z,7.40
2023-05-04T23:30:27.009Z,7.38
2023-05-04T23:33:00.058Z,7.72
2023-05-04T23:35:33.085Z,7.00
2023-05-04T23:38:06.033Z,6.95
2023-05-04T23:40:38.992Z,7.50
2023-05-04T23:43:13.884Z,7.68
2023-05-04T23:45:47.219Z,8.10
2023-05-04T23:48:20.247Z,7.18
2023-05-04T23:50:54.125Z,7.63
2023-05-04T23:53:27.096Z,7.47
2023-05-04T23:56:03.540Z,7.28
2023-05-04T23:58:38.430Z,6.97
